Terminal Aerodrome Forecast
Issued by NWS Atlanta, GA

Home | Current Version | Previous Version | Text Only | Print | Product List | Glossary On
Versions: 1 2 3 4 5 6 7 8 9 10 11 12 13 14 15 16 17 18 19 20
000
FTUS42 KFFC 250521
TAFCSG
TAF
KCSG 250521Z 2506/2606 VRB03KT P6SM VCSH BKN100
      TEMPO 2506/2508 BKN015
     FM251400 35007KT P6SM BKN250
     FM251800 34011G18KT P6SM SCT050
     FM260000 01004KT P6SM OVC250=

USA.gov is the U.S. government's official web portal to all federal, state and local government web resources and services.